sensor_id;sensor_type;location;lat;lon;timestamp;temperature;humidity
48998;DHT22;34807;51.456;7.244;2022-07-11T00:01:37;18.50;76.60
48998;DHT22;34807;51.456;7.244;2022-07-11T00:04:02;18.50;76.60
48998;DHT22;34807;51.456;7.244;2022-07-11T00:06:28;18.50;76.60
48998;DHT22;34807;51.456;7.244;2022-07-11T00:08:53;18.50;76.50
48998;DHT22;34807;51.456;7.244;2022-07-11T00:11:19;18.50;76.60
48998;DHT22;34807;51.456;7.244;2022-07-11T00:13:44;18.50;76.60
48998;DHT22;34807;51.456;7.244;2022-07-11T00:16:10;18.50;76.60
48998;DHT22;34807;51.456;7.244;2022-07-11T00:18:36;18.50;76.60
48998;DHT22;34807;51.456;7.244;2022-07-11T00:21:01;18.50;76.70
48998;DHT22;34807;51.456;7.244;2022-07-11T00:23:26;18.50;76.60
48998;DHT22;34807;51.456;7.244;2022-07-11T00:25:52;18.50;76.60
48998;DHT22;34807;51.456;7.244;2022-07-11T00:28:17;18.50;76.70
48998;DHT22;34807;51.456;7.244;2022-07-11T00:30:43;18.50;76.50
48998;DHT22;34807;51.456;7.244;2022-07-11T00:33:10;18.50;76.90
48998;DHT22;34807;51.456;7.244;2022-07-11T00:35:36;18.40;76.80
48998;DHT22;34807;51.456;7.244;2022-07-11T00:38:01;18.40;76.70
48998;DHT22;34807;51.456;7.244;2022-07-11T00:40:27;18.40;77.00
48998;DHT22;34807;51.456;7.244;2022-07-11T00:42:52;18.50;76.80
48998;DHT22;34807;51.456;7.244;2022-07-11T00:45:18;18.40;76.90
48998;DHT22;34807;51.456;7.244;2022-07-11T00:47:43;18.40;76.90
48998;DHT22;34807;51.456;7.244;2022-07-11T00:50:09;18.40;77.00
48998;DHT22;34807;51.456;7.244;2022-07-11T00:52:35;18.40;76.90
48998;DHT22;34807;51.456;7.244;2022-07-11T00:55:01;18.40;77.10
48998;DHT22;34807;51.456;7.244;2022-07-11T00:57:29;18.40;77.00
48998;DHT22;34807;51.456;7.244;2022-07-11T00:59:55;18.40;77.00
48998;DHT22;34807;51.456;7.244;2022-07-11T01:02:21;18.40;77.00
48998;DHT22;34807;51.456;7.244;2022-07-11T01:04:46;18.40;77.10
48998;DHT22;34807;51.456;7.244;2022-07-11T01:07:12;18.40;77.10
48998;DHT22;34807;51.456;7.244;2022-07-11T01:09:37;18.40;77.60
48998;DHT22;34807;51.456;7.244;2022-07-11T01:12:03;18.30;77.00
48998;DHT22;34807;51.456;7.244;2022-07-11T01:14:28;18.30;76.90
48998;DHT22;34807;51.456;7.244;2022-07-11T01:16:54;18.30;77.00
48998;DHT22;34807;51.456;7.244;2022-07-11T01:19:19;18.30;77.00
48998;DHT22;34807;51.456;7.244;2022-07-11T01:21:48;18.30;77.00
48998;DHT22;34807;51.456;7.244;2022-07-11T01:24:14;18.30;77.10
48998;DHT22;34807;51.456;7.244;2022-07-11T01:26:40;18.30;77.30
48998;DHT22;34807;51.456;7.244;2022-07-11T01:31:31;18.30;77.40
48998;DHT22;34807;51.456;7.244;2022-07-11T01:33:57;18.20;77.40
48998;DHT22;34807;51.456;7.244;2022-07-11T01:36:22;18.20;77.50
48998;DHT22;34807;51.456;7.244;2022-07-11T01:38:47;18.20;77.40
48998;DHT22;34807;51.456;7.244;2022-07-11T01:41:13;18.20;77.60
48998;DHT22;34807;51.456;7.244;2022-07-11T01:43:39;18.20;77.50
48998;DHT22;34807;51.456;7.244;2022-07-11T01:46:04;18.20;77.50
48998;DHT22;34807;51.456;7.244;2022-07-11T01:48:30;18.20;77.70
48998;DHT22;34807;51.456;7.244;2022-07-11T01:50:55;18.10;77.70
48998;DHT22;34807;51.456;7.244;2022-07-11T01:53:21;18.10;77.50
48998;DHT22;34807;51.456;7.244;2022-07-11T01:55:47;18.10;77.60
48998;DHT22;34807;51.456;7.244;2022-07-11T01:58:13;18.10;77.60
48998;DHT22;34807;51.456;7.244;2022-07-11T02:00:38;18.10;77.60
48998;DHT22;34807;51.456;7.244;2022-07-11T02:03:04;18.10;77.70
48998;DHT22;34807;51.456;7.244;2022-07-11T02:05:29;18.10;77.60
48998;DHT22;34807;51.456;7.244;2022-07-11T02:07:55;18.00;77.70
48998;DHT22;34807;51.456;7.244;2022-07-11T02:10:39;18.00;77.60
48998;DHT22;34807;51.456;7.244;2022-07-11T02:13:05;18.00;77.80
48998;DHT22;34807;51.456;7.244;2022-07-11T02:15:31;18.00;77.90
48998;DHT22;34807;51.456;7.244;2022-07-11T02:17:56;18.00;77.80
48998;DHT22;34807;51.456;7.244;2022-07-11T02:20:22;18.00;78.00
48998;DHT22;34807;51.456;7.244;2022-07-11T02:22:48;18.00;78.00
48998;DHT22;34807;51.456;7.244;2022-07-11T02:25:14;18.00;78.10
48998;DHT22;34807;51.456;7.244;2022-07-11T02:27:40;18.00;78.20
48998;DHT22;34807;51.456;7.244;2022-07-11T02:30:06;18.00;78.20
48998;DHT22;34807;51.456;7.244;2022-07-11T02:32:31;17.90;78.20
48998;DHT22;34807;51.456;7.244;2022-07-11T02:34:57;18.00;78.30
48998;DHT22;34807;51.456;7.244;2022-07-11T02:37:22;18.00;78.20
48998;DHT22;34807;51.456;7.244;2022-07-11T02:39:48;18.00;78.40
48998;DHT22;34807;51.456;7.244;2022-07-11T02:42:14;17.90;78.20
48998;DHT22;34807;51.456;7.244;2022-07-11T02:44:39;18.00;78.30
48998;DHT22;34807;51.456;7.244;2022-07-11T02:47:05;17.90;78.30
48998;DHT22;34807;51.456;7.244;2022-07-11T02:49:30;17.90;78.30
48998;DHT22;34807;51.456;7.244;2022-07-11T02:51:57;17.90;78.40
48998;DHT22;34807;51.456;7.244;2022-07-11T02:54:22;17.90;78.40
48998;DHT22;34807;51.456;7.244;2022-07-11T02:56:48;17.90;78.40
48998;DHT22;34807;51.456;7.244;2022-07-11T02:59:13;17.90;78.30
48998;DHT22;34807;51.456;7.244;2022-07-11T03:01:39;17.90;78.30
48998;DHT22;34807;51.456;7.244;2022-07-11T03:04:07;17.90;78.30
48998;DHT22;34807;51.456;7.244;2022-07-11T03:06:32;17.90;78.30
48998;DHT22;34807;51.456;7.244;2022-07-11T03:08:58;17.90;78.20
48998;DHT22;34807;51.456;7.244;2022-07-11T03:11:23;17.90;78.40
48998;DHT22;34807;51.456;7.244;2022-07-11T03:13:49;17.90;78.50
48998;DHT22;34807;51.456;7.244;2022-07-11T03:16:14;17.90;78.40
48998;DHT22;34807;51.456;7.244;2022-07-11T03:18:40;17.90;78.20
48998;DHT22;34807;51.456;7.244;2022-07-11T03:21:05;17.90;78.40
48998;DHT22;34807;51.456;7.244;2022-07-11T03:23:31;17.90;78.40
48998;DHT22;34807;51.456;7.244;2022-07-11T03:25:56;17.90;78.50
48998;DHT22;34807;51.456;7.244;2022-07-11T03:28:22;17.90;78.50
48998;DHT22;34807;51.456;7.244;2022-07-11T03:30:47;17.90;78.50
48998;DHT22;34807;51.456;7.244;2022-07-11T03:33:13;17.90;78.60
48998;DHT22;34807;51.456;7.244;2022-07-11T03:35:38;17.90;78.60
48998;DHT22;34807;51.456;7.244;2022-07-11T03:38:07;17.90;78.60
48998;DHT22;34807;51.456;7.244;2022-07-11T03:40:33;17.90;78.60
48998;DHT22;34807;51.456;7.244;2022-07-11T03:42:58;17.90;78.70
48998;DHT22;34807;51.456;7.244;2022-07-11T03:45:24;17.90;78.70
48998;DHT22;34807;51.456;7.244;2022-07-11T03:47:49;17.90;78.70
48998;DHT22;34807;51.456;7.244;2022-07-11T03:50:15;17.90;78.80
48998;DHT22;34807;51.456;7.244;2022-07-11T03:52:42;17.90;78.60
48998;DHT22;34807;51.456;7.244;2022-07-11T03:55:07;17.90;78.80
48998;DHT22;34807;51.456;7.244;2022-07-11T03:57:33;17.90;79.40
48998;DHT22;34807;51.456;7.244;2022-07-11T03:59:59;17.90;78.80
48998;DHT22;34807;51.456;7.244;2022-07-11T04:02:25;17.90;79.10
48998;DHT22;34807;51.456;7.244;2022-07-11T04:04:50;17.90;78.80
48998;DHT22;34807;51.456;7.244;2022-07-11T04:07:16;17.90;78.90
48998;DHT22;34807;51.456;7.244;2022-07-11T04:09:42;17.90;79.50
48998;DHT22;34807;51.456;7.244;2022-07-11T04:12:07;17.90;78.80
48998;DHT22;34807;51.456;7.244;2022-07-11T04:14:33;17.90;78.90
48998;DHT22;34807;51.456;7.244;2022-07-11T04:16:58;17.90;78.90
48998;DHT22;34807;51.456;7.244;2022-07-11T04:19:24;17.90;78.70
48998;DHT22;34807;51.456;7.244;2022-07-11T04:21:49;17.90;78.90
48998;DHT22;34807;51.456;7.244;2022-07-11T04:24:15;17.90;78.90
48998;DHT22;34807;51.456;7.244;2022-07-11T04:26:40;17.90;78.90
48998;DHT22;34807;51.456;7.244;2022-07-11T04:29:06;17.90;79.10
48998;DHT22;34807;51.456;7.244;2022-07-11T04:31:32;17.90;79.10
48998;DHT22;34807;51.456;7.244;2022-07-11T04:33:58;17.90;78.90
48998;DHT22;34807;51.456;7.244;2022-07-11T04:36:23;17.90;78.90
48998;DHT22;34807;51.456;7.244;2022-07-11T04:38:49;17.90;79.00
48998;DHT22;34807;51.456;7.244;2022-07-11T04:41:15;17.90;78.90
48998;DHT22;34807;51.456;7.244;2022-07-11T04:43:40;17.90;79.10
48998;DHT22;34807;51.456;7.244;2022-07-11T04:46:06;17.90;79.20
48998;DHT22;34807;51.456;7.244;2022-07-11T04:48:31;17.90;78.90
48998;DHT22;34807;51.456;7.244;2022-07-11T04:50:57;17.90;79.10
48998;DHT22;34807;51.456;7.244;2022-07-11T04:53:23;17.90;79.20
48998;DHT22;34807;51.456;7.244;2022-07-11T04:55:48;17.90;79.20
48998;DHT22;34807;51.456;7.244;2022-07-11T04:58:14;17.90;79.20
48998;DHT22;34807;51.456;7.244;2022-07-11T05:00:40;17.90;79.10
48998;DHT22;34807;51.456;7.244;2022-07-11T05:03:05;17.90;79.10
48998;DHT22;34807;51.456;7.244;2022-07-11T05:05:31;17.90;79.10
48998;DHT22;34807;51.456;7.244;2022-07-11T05:07:56;17.90;79.20
48998;DHT22;34807;51.456;7.244;2022-07-11T05:10:23;17.90;79.30
48998;DHT22;34807;51.456;7.244;2022-07-11T05:12:48;17.90;79.30
48998;DHT22;34807;51.456;7.244;2022-07-11T05:15:13;17.90;79.30
48998;DHT22;34807;51.456;7.244;2022-07-11T05:17:39;17.90;79.30
48998;DHT22;34807;51.456;7.244;2022-07-11T05:20:05;17.90;79.40
48998;DHT22;34807;51.456;7.244;2022-07-11T05:22:30;17.90;79.40
48998;DHT22;34807;51.456;7.244;2022-07-11T05:24:56;18.00;79.40
48998;DHT22;34807;51.456;7.244;2022-07-11T05:27:21;18.00;79.40
48998;DHT22;34807;51.456;7.244;2022-07-11T05:29:47;18.00;79.30
48998;DHT22;34807;51.456;7.244;2022-07-11T05:32:12;18.00;79.40
48998;DHT22;34807;51.456;7.244;2022-07-11T05:34:38;18.00;79.60
48998;DHT22;34807;51.456;7.244;2022-07-11T05:37:03;17.90;79.40
48998;DHT22;34807;51.456;7.244;2022-07-11T05:39:29;18.00;79.50
48998;DHT22;34807;51.456;7.244;2022-07-11T05:41:55;18.00;79.70
48998;DHT22;34807;51.456;7.244;2022-07-11T05:44:20;18.00;79.50
48998;DHT22;34807;51.456;7.244;2022-07-11T05:46:46;18.00;79.60
48998;DHT22;34807;51.456;7.244;2022-07-11T05:49:11;18.00;79.70
48998;DHT22;34807;51.456;7.244;2022-07-11T05:51:38;18.00;79.60
48998;DHT22;34807;51.456;7.244;2022-07-11T05:54:04;18.00;79.60
48998;DHT22;34807;51.456;7.244;2022-07-11T05:56:29;17.90;79.60
48998;DHT22;34807;51.456;7.244;2022-07-11T05:58:57;18.00;79.60
48998;DHT22;34807;51.456;7.244;2022-07-11T06:01:23;18.00;79.60
48998;DHT22;34807;51.456;7.244;2022-07-11T06:03:49;18.00;79.60
48998;DHT22;34807;51.456;7.244;2022-07-11T06:06:15;17.90;79.70
48998;DHT22;34807;51.456;7.244;2022-07-11T06:08:42;17.90;79.70
48998;DHT22;34807;51.456;7.244;2022-07-11T06:11:11;18.00;79.70
48998;DHT22;34807;51.456;7.244;2022-07-11T06:13:38;18.00;79.80
48998;DHT22;34807;51.456;7.244;2022-07-11T06:16:04;18.00;79.60
48998;DHT22;34807;51.456;7.244;2022-07-11T06:18:30;18.00;79.60
48998;DHT22;34807;51.456;7.244;2022-07-11T06:20:55;18.00;79.80
48998;DHT22;34807;51.456;7.244;2022-07-11T06:23:21;18.00;79.80
48998;DHT22;34807;51.456;7.244;2022-07-11T06:25:46;18.00;79.70
48998;DHT22;34807;51.456;7.244;2022-07-11T06:28:12;18.00;79.80
48998;DHT22;34807;51.456;7.244;2022-07-11T06:30:37;18.00;79.80
48998;DHT22;34807;51.456;7.244;2022-07-11T06:33:03;18.00;79.70
48998;DHT22;34807;51.456;7.244;2022-07-11T06:35:29;18.00;79.60
48998;DHT22;34807;51.456;7.244;2022-07-11T06:37:55;18.00;79.70
48998;DHT22;34807;51.456;7.244;2022-07-11T06:40:21;18.00;79.50
48998;DHT22;34807;51.456;7.244;2022-07-11T06:42:48;18.00;79.50
48998;DHT22;34807;51.456;7.244;2022-07-11T06:45:14;18.00;79.50
48998;DHT22;34807;51.456;7.244;2022-07-11T06:47:40;18.00;79.40
48998;DHT22;34807;51.456;7.244;2022-07-11T06:50:06;18.10;79.50
48998;DHT22;34807;51.456;7.244;2022-07-11T06:52:31;18.10;79.20
48998;DHT22;34807;51.456;7.244;2022-07-11T06:54:57;18.10;79.20
48998;DHT22;34807;51.456;7.244;2022-07-11T06:57:23;18.10;79.30
48998;DHT22;34807;51.456;7.244;2022-07-11T06:59:49;18.20;79.20
48998;DHT22;34807;51.456;7.244;2022-07-11T07:02:14;18.20;79.10
48998;DHT22;34807;51.456;7.244;2022-07-11T07:04:40;18.20;79.10
48998;DHT22;34807;51.456;7.244;2022-07-11T07:07:05;18.20;79.00
48998;DHT22;34807;51.456;7.244;2022-07-11T07:09:31;18.20;79.00
48998;DHT22;34807;51.456;7.244;2022-07-11T07:11:56;18.20;79.00
48998;DHT22;34807;51.456;7.244;2022-07-11T07:14:23;18.20;78.90
48998;DHT22;34807;51.456;7.244;2022-07-11T07:16:48;18.30;79.10
48998;DHT22;34807;51.456;7.244;2022-07-11T07:19:14;18.30;79.10
48998;DHT22;34807;51.456;7.244;2022-07-11T07:21:40;18.30;79.30
48998;DHT22;34807;51.456;7.244;2022-07-11T07:24:05;18.30;78.90
48998;DHT22;34807;51.456;7.244;2022-07-11T07:26:31;18.40;79.10
48998;DHT22;34807;51.456;7.244;2022-07-11T07:28:57;18.40;78.80
48998;DHT22;34807;51.456;7.244;2022-07-11T07:31:22;18.40;78.90
48998;DHT22;34807;51.456;7.244;2022-07-11T07:33:48;18.40;78.80
48998;DHT22;34807;51.456;7.244;2022-07-11T07:36:14;18.40;78.90
48998;DHT22;34807;51.456;7.244;2022-07-11T07:38:40;18.40;78.90
48998;DHT22;34807;51.456;7.244;2022-07-11T07:41:06;18.40;78.90
48998;DHT22;34807;51.456;7.244;2022-07-11T07:43:32;18.40;78.80
48998;DHT22;34807;51.456;7.244;2022-07-11T07:45:57;18.50;79.00
48998;DHT22;34807;51.456;7.244;2022-07-11T07:48:23;18.50;78.80
48998;DHT22;34807;51.456;7.244;2022-07-11T07:50:48;18.50;78.70
48998;DHT22;34807;51.456;7.244;2022-07-11T07:53:14;18.50;78.70
48998;DHT22;34807;51.456;7.244;2022-07-11T07:55:40;18.50;78.70
48998;DHT22;34807;51.456;7.244;2022-07-11T07:58:05;18.50;78.80
48998;DHT22;34807;51.456;7.244;2022-07-11T08:00:31;18.50;78.80
48998;DHT22;34807;51.456;7.244;2022-07-11T08:03:15;18.50;78.70
48998;DHT22;34807;51.456;7.244;2022-07-11T08:05:41;18.60;78.80
48998;DHT22;34807;51.456;7.244;2022-07-11T08:08:06;18.60;78.90
48998;DHT22;34807;51.456;7.244;2022-07-11T08:10:32;18.60;78.90
48998;DHT22;34807;51.456;7.244;2022-07-11T08:12:57;18.60;78.90
48998;DHT22;34807;51.456;7.244;2022-07-11T08:15:23;18.60;78.90
48998;DHT22;34807;51.456;7.244;2022-07-11T08:17:48;18.60;78.90
48998;DHT22;34807;51.456;7.244;2022-07-11T08:20:14;18.60;78.70
48998;DHT22;34807;51.456;7.244;2022-07-11T08:22:40;18.60;78.70
48998;DHT22;34807;51.456;7.244;2022-07-11T08:25:05;18.60;78.80
48998;DHT22;34807;51.456;7.244;2022-07-11T08:27:31;18.70;78.90
48998;DHT22;34807;51.456;7.244;2022-07-11T08:29:57;18.60;78.90
48998;DHT22;34807;51.456;7.244;2022-07-11T08:32:23;18.60;79.00
48998;DHT22;34807;51.456;7.244;2022-07-11T08:34:49;18.70;79.10
48998;DHT22;34807;51.456;7.244;2022-07-11T08:37:15;18.70;79.10
48998;DHT22;34807;51.456;7.244;2022-07-11T08:39:40;18.70;79.00
48998;DHT22;34807;51.456;7.244;2022-07-11T08:42:06;18.70;78.90
48998;DHT22;34807;51.456;7.244;2022-07-11T08:44:32;18.70;79.10
48998;DHT22;34807;51.456;7.244;2022-07-11T08:46:58;18.70;79.10
48998;DHT22;34807;51.456;7.244;2022-07-11T08:49:24;18.80;79.20
48998;DHT22;34807;51.456;7.244;2022-07-11T08:51:50;18.80;79.10
48998;DHT22;34807;51.456;7.244;2022-07-11T08:54:16;18.80;79.10
48998;DHT22;34807;51.456;7.244;2022-07-11T08:56:43;18.90;79.10
48998;DHT22;34807;51.456;7.244;2022-07-11T08:59:09;18.90;79.20
48998;DHT22;34807;51.456;7.244;2022-07-11T09:01:36;18.90;79.10
48998;DHT22;34807;51.456;7.244;2022-07-11T09:04:02;18.90;79.30
48998;DHT22;34807;51.456;7.244;2022-07-11T09:06:28;18.90;79.30
48998;DHT22;34807;51.456;7.244;2022-07-11T09:09:00;18.90;79.40
48998;DHT22;34807;51.456;7.244;2022-07-11T09:11:26;18.90;79.40
48998;DHT22;34807;51.456;7.244;2022-07-11T09:13:51;18.90;79.50
48998;DHT22;34807;51.456;7.244;2022-07-11T09:16:17;18.90;79.40
48998;DHT22;34807;51.456;7.244;2022-07-11T09:18:42;19.00;79.40
48998;DHT22;34807;51.456;7.244;2022-07-11T09:21:12;19.10;79.00
48998;DHT22;34807;51.456;7.244;2022-07-11T09:23:57;19.20;79.40
48998;DHT22;34807;51.456;7.244;2022-07-11T09:26:42;19.30;78.80
48998;DHT22;34807;51.456;7.244;2022-07-11T09:29:09;19.40;78.40
48998;DHT22;34807;51.456;7.244;2022-07-11T09:31:35;19.40;78.30
48998;DHT22;34807;51.456;7.244;2022-07-11T09:36:46;19.40;78.40
48998;DHT22;34807;51.456;7.244;2022-07-11T09:39:22;19.50;78.50
48998;DHT22;34807;51.456;7.244;2022-07-11T09:41:48;19.40;78.30
48998;DHT22;34807;51.456;7.244;2022-07-11T09:46:40;19.40;78.60
48998;DHT22;34807;51.456;7.244;2022-07-11T09:49:06;19.40;78.70
48998;DHT22;34807;51.456;7.244;2022-07-11T09:51:33;19.40;78.80
48998;DHT22;34807;51.456;7.244;2022-07-11T09:53:58;19.40;78.80
48998;DHT22;34807;51.456;7.244;2022-07-11T09:56:25;19.40;78.80
48998;DHT22;34807;51.456;7.244;2022-07-11T09:59:00;19.40;78.90
48998;DHT22;34807;51.456;7.244;2022-07-11T10:01:26;19.40;78.90
48998;DHT22;34807;51.456;7.244;2022-07-11T10:03:52;19.40;79.00
48998;DHT22;34807;51.456;7.244;2022-07-11T10:06:18;19.40;78.90
48998;DHT22;34807;51.456;7.244;2022-07-11T10:08:43;19.40;79.00
48998;DHT22;34807;51.456;7.244;2022-07-11T10:11:09;19.50;78.90
48998;DHT22;34807;51.456;7.244;2022-07-11T10:13:36;19.40;78.70
48998;DHT22;34807;51.456;7.244;2022-07-11T10:16:03;19.50;78.70
48998;DHT22;34807;51.456;7.244;2022-07-11T10:18:35;19.50;78.60
48998;DHT22;34807;51.456;7.244;2022-07-11T10:21:07;19.60;78.60
48998;DHT22;34807;51.456;7.244;2022-07-11T10:23:54;19.60;78.60
48998;DHT22;34807;51.456;7.244;2022-07-11T10:29:16;19.60;78.50
48998;DHT22;34807;51.456;7.244;2022-07-11T10:31:42;19.60;78.40
48998;DHT22;34807;51.456;7.244;2022-07-11T10:34:11;19.70;78.50
48998;DHT22;34807;51.456;7.244;2022-07-11T10:36:44;19.60;78.40
48998;DHT22;34807;51.456;7.244;2022-07-11T10:39:15;19.70;78.20
48998;DHT22;34807;51.456;7.244;2022-07-11T10:41:40;19.80;78.30
48998;DHT22;34807;51.456;7.244;2022-07-11T10:44:06;19.80;78.10
48998;DHT22;34807;51.456;7.244;2022-07-11T10:46:32;19.80;78.00
48998;DHT22;34807;51.456;7.244;2022-07-11T10:59:13;19.90;78.00
48998;DHT22;34807;51.456;7.244;2022-07-11T11:07:10;19.90;78.20
48998;DHT22;34807;51.456;7.244;2022-07-11T11:09:51;19.80;78.40
48998;DHT22;34807;51.456;7.244;2022-07-11T11:12:17;19.80;78.30
48998;DHT22;34807;51.456;7.244;2022-07-11T11:14:42;19.90;78.30
48998;DHT22;34807;51.456;7.244;2022-07-11T11:19:52;19.90;78.60
48998;DHT22;34807;51.456;7.244;2022-07-11T11:22:19;19.90;78.60
48998;DHT22;34807;51.456;7.244;2022-07-11T11:24:46;19.90;78.60
48998;DHT22;34807;51.456;7.244;2022-07-11T11:27:21;20.00;78.60
48998;DHT22;34807;51.456;7.244;2022-07-11T11:29:50;20.00;78.50
48998;DHT22;34807;51.456;7.244;2022-07-11T11:32:17;20.10;78.30
48998;DHT22;34807;51.456;7.244;2022-07-11T11:34:42;20.20;78.00
48998;DHT22;34807;51.456;7.244;2022-07-11T11:37:08;20.30;78.00
48998;DHT22;34807;51.456;7.244;2022-07-11T11:39:37;20.40;77.80
48998;DHT22;34807;51.456;7.244;2022-07-11T11:42:05;20.40;77.40
48998;DHT22;34807;51.456;7.244;2022-07-11T11:44:31;20.40;77.30
48998;DHT22;34807;51.456;7.244;2022-07-11T11:46:57;20.40;77.20
48998;DHT22;34807;51.456;7.244;2022-07-11T11:49:23;20.40;77.40
48998;DHT22;34807;51.456;7.244;2022-07-11T11:51:49;20.40;77.40
48998;DHT22;34807;51.456;7.244;2022-07-11T11:54:22;20.40;77.40
48998;DHT22;34807;51.456;7.244;2022-07-11T11:56:48;20.40;77.60
48998;DHT22;34807;51.456;7.244;2022-07-11T11:59:14;20.40;77.70
48998;DHT22;34807;51.456;7.244;2022-07-11T12:01:41;20.40;77.60
48998;DHT22;34807;51.456;7.244;2022-07-11T12:04:08;20.40;77.40
48998;DHT22;34807;51.456;7.244;2022-07-11T12:06:40;20.40;77.30
48998;DHT22;34807;51.456;7.244;2022-07-11T12:09:13;20.40;77.20
48998;DHT22;34807;51.456;7.244;2022-07-11T12:11:41;20.50;77.40
48998;DHT22;34807;51.456;7.244;2022-07-11T12:14:08;20.50;77.20
48998;DHT22;34807;51.456;7.244;2022-07-11T12:16:34;20.50;77.30
48998;DHT22;34807;51.456;7.244;2022-07-11T12:19:10;20.50;77.20
48998;DHT22;34807;51.456;7.244;2022-07-11T12:21:37;20.60;77.00
48998;DHT22;34807;51.456;7.244;2022-07-11T12:24:11;20.60;77.00
48998;DHT22;34807;51.456;7.244;2022-07-11T12:26:37;20.60;77.00
48998;DHT22;34807;51.456;7.244;2022-07-11T12:31:48;20.70;76.50
48998;DHT22;34807;51.456;7.244;2022-07-11T12:34:15;20.70;76.40
48998;DHT22;34807;51.456;7.244;2022-07-11T12:36:41;20.70;76.30
48998;DHT22;34807;51.456;7.244;2022-07-11T12:39:07;20.80;76.50
48998;DHT22;34807;51.456;7.244;2022-07-11T12:41:34;20.80;76.20
48998;DHT22;34807;51.456;7.244;2022-07-11T12:43:59;20.90;76.10
48998;DHT22;34807;51.456;7.244;2022-07-11T12:46:43;20.90;76.50
48998;DHT22;34807;51.456;7.244;2022-07-11T12:49:12;21.00;75.90
48998;DHT22;34807;51.456;7.244;2022-07-11T12:51:38;21.00;75.50
48998;DHT22;34807;51.456;7.244;2022-07-11T12:54:06;21.10;75.70
48998;DHT22;34807;51.456;7.244;2022-07-11T12:56:31;21.10;75.40
48998;DHT22;34807;51.456;7.244;2022-07-11T12:59:00;21.10;75.30
48998;DHT22;34807;51.456;7.244;2022-07-11T13:01:29;21.20;75.40
48998;DHT22;34807;51.456;7.244;2022-07-11T13:03:55;21.20;75.40
48998;DHT22;34807;51.456;7.244;2022-07-11T13:06:21;21.20;75.40
48998;DHT22;34807;51.456;7.244;2022-07-11T13:09:07;21.30;75.40
48998;DHT22;34807;51.456;7.244;2022-07-11T13:11:34;21.30;75.30
48998;DHT22;34807;51.456;7.244;2022-07-11T13:13:59;21.30;75.10
48998;DHT22;34807;51.456;7.244;2022-07-11T13:16:25;21.30;75.10
48998;DHT22;34807;51.456;7.244;2022-07-11T13:18:50;21.30;75.20
48998;DHT22;34807;51.456;7.244;2022-07-11T13:21:16;21.30;75.10
48998;DHT22;34807;51.456;7.244;2022-07-11T13:23:42;21.30;75.30
48998;DHT22;34807;51.456;7.244;2022-07-11T13:26:08;21.30;75.30
48998;DHT22;34807;51.456;7.244;2022-07-11T13:28:34;21.40;75.50
48998;DHT22;34807;51.456;7.244;2022-07-11T13:30:59;21.30;75.40
48998;DHT22;34807;51.456;7.244;2022-07-11T13:33:25;21.40;75.20
48998;DHT22;34807;51.456;7.244;2022-07-11T13:35:51;21.40;75.30
48998;DHT22;34807;51.456;7.244;2022-07-11T13:38:18;21.40;75.50
48998;DHT22;34807;51.456;7.244;2022-07-11T13:40:44;21.40;75.30
48998;DHT22;34807;51.456;7.244;2022-07-11T13:43:09;21.40;75.40
48998;DHT22;34807;51.456;7.244;2022-07-11T13:45:35;21.40;75.40
48998;DHT22;34807;51.456;7.244;2022-07-11T13:48:01;21.40;75.50
48998;DHT22;34807;51.456;7.244;2022-07-11T13:50:27;21.40;75.30
48998;DHT22;34807;51.456;7.244;2022-07-11T13:52:52;21.40;75.30
48998;DHT22;34807;51.456;7.244;2022-07-11T13:55:19;21.50;75.10
48998;DHT22;34807;51.456;7.244;2022-07-11T13:57:45;21.50;75.20
48998;DHT22;34807;51.456;7.244;2022-07-11T14:00:11;21.50;75.20
48998;DHT22;34807;51.456;7.244;2022-07-11T14:02:36;21.60;74.90
48998;DHT22;34807;51.456;7.244;2022-07-11T14:05:02;21.70;75.10
48998;DHT22;34807;51.456;7.244;2022-07-11T14:07:27;21.70;75.10
48998;DHT22;34807;51.456;7.244;2022-07-11T14:09:53;21.80;74.80
48998;DHT22;34807;51.456;7.244;2022-07-11T14:12:19;21.80;74.30
48998;DHT22;34807;51.456;7.244;2022-07-11T14:14:45;21.80;74.40
48998;DHT22;34807;51.456;7.244;2022-07-11T14:17:10;21.80;74.50
48998;DHT22;34807;51.456;7.244;2022-07-11T14:19:36;21.80;74.60
48998;DHT22;34807;51.456;7.244;2022-07-11T14:22:07;21.80;74.80
48998;DHT22;34807;51.456;7.244;2022-07-11T14:24:33;21.80;74.80
48998;DHT22;34807;51.456;7.244;2022-07-11T14:26:58;21.70;74.80
48998;DHT22;34807;51.456;7.244;2022-07-11T14:29:24;21.80;74.80
48998;DHT22;34807;51.456;7.244;2022-07-11T14:31:53;21.90;74.60
48998;DHT22;34807;51.456;7.244;2022-07-11T14:34:19;21.90;74.60
48998;DHT22;34807;51.456;7.244;2022-07-11T14:36:45;21.90;74.50
48998;DHT22;34807;51.456;7.244;2022-07-11T14:39:10;21.90;74.50
48998;DHT22;34807;51.456;7.244;2022-07-11T14:41:36;22.00;74.50
48998;DHT22;34807;51.456;7.244;2022-07-11T14:44:02;22.10;74.60
48998;DHT22;34807;51.456;7.244;2022-07-11T14:46:28;22.10;74.10
48998;DHT22;34807;51.456;7.244;2022-07-11T14:48:53;22.20;73.60
48998;DHT22;34807;51.456;7.244;2022-07-11T14:51:19;22.30;73.80
48998;DHT22;34807;51.456;7.244;2022-07-11T14:53:45;22.30;73.50
48998;DHT22;34807;51.456;7.244;2022-07-11T14:56:10;22.40;73.50
48998;DHT22;34807;51.456;7.244;2022-07-11T14:58:36;22.50;73.30
48998;DHT22;34807;51.456;7.244;2022-07-11T15:01:01;22.60;72.90
48998;DHT22;34807;51.456;7.244;2022-07-11T15:03:27;22.70;72.80
48998;DHT22;34807;51.456;7.244;2022-07-11T15:06:08;22.70;72.50
48998;DHT22;34807;51.456;7.244;2022-07-11T15:08:34;22.80;72.30
48998;DHT22;34807;51.456;7.244;2022-07-11T15:11:18;23.10;72.30
48998;DHT22;34807;51.456;7.244;2022-07-11T15:14:02;23.20;71.40
48998;DHT22;34807;51.456;7.244;2022-07-11T15:16:28;23.20;71.30
48998;DHT22;34807;51.456;7.244;2022-07-11T15:18:56;23.20;71.40
48998;DHT22;34807;51.456;7.244;2022-07-11T15:21:22;23.20;71.60
48998;DHT22;34807;51.456;7.244;2022-07-11T15:23:47;23.10;71.80
48998;DHT22;34807;51.456;7.244;2022-07-11T15:26:13;23.10;72.20
48998;DHT22;34807;51.456;7.244;2022-07-11T15:28:38;23.10;72.20
48998;DHT22;34807;51.456;7.244;2022-07-11T15:31:04;23.10;72.20
48998;DHT22;34807;51.456;7.244;2022-07-11T15:33:31;23.30;72.00
48998;DHT22;34807;51.456;7.244;2022-07-11T15:35:56;23.40;71.90
48998;DHT22;34807;51.456;7.244;2022-07-11T15:38:22;23.70;71.20
48998;DHT22;34807;51.456;7.244;2022-07-11T15:40:47;24.10;70.10
48998;DHT22;34807;51.456;7.244;2022-07-11T15:43:13;24.30;69.60
48998;DHT22;34807;51.456;7.244;2022-07-11T15:45:39;24.40;68.90
48998;DHT22;34807;51.456;7.244;2022-07-11T15:48:05;24.40;68.80
48998;DHT22;34807;51.456;7.244;2022-07-11T15:50:31;24.60;68.90
48998;DHT22;34807;51.456;7.244;2022-07-11T15:52:56;24.80;68.20
48998;DHT22;34807;51.456;7.244;2022-07-11T15:55:22;24.80;67.80
48998;DHT22;34807;51.456;7.244;2022-07-11T15:57:47;24.70;68.40